Time;durP1;ratioP1;P1;durP2;ratioP2;P2;SDS_P1;SDS_P2;PMS_P1;PMS_P2;Temp;Humidity;BMP_temperature;BMP_pressure;BME280_temperature;BME280_humidity;BME280_pressure;Samples;Min_cycle;Max_cycle;Signal;HPM_P1;HPM_P2
2022/09/17 00:04:48;;;;;;;1.40;1.23;;;;;;;19.01;66.84;95998.06;10305897;28;20081;-64
2022/09/17 00:10:07;;;;;;;1.60;1.13;;;;;;;19.00;66.84;95996.50;10292173;28;20051;-63
2022/09/17 00:15:27;;;;;;;1.27;1.17;;;;;;;19.00;66.85;95988.41;10292117;28;20063;-63
2022/09/17 00:20:46;;;;;;;1.55;1.08;;;;;;;19.00;66.87;95993.00;10294711;28;20085;-63
2022/09/17 00:26:06;;;;;;;1.27;1.17;;;;;;;19.00;66.92;95987.63;10292581;28;20121;-62
2022/09/17 00:31:26;;;;;;;1.83;1.10;;;;;;;18.99;66.75;95980.63;10294810;28;20062;-63
2022/09/17 00:36:46;;;;;;;1.20;1.10;;;;;;;18.99;66.88;95976.00;10303067;28;20059;-63
2022/09/17 00:42:09;;;;;;;1.00;1.00;;;;;;;18.98;66.87;95987.94;10291800;28;20074;-63
2022/09/17 00:47:32;;;;;;;1.30;1.20;;;;;;;18.98;66.75;95987.16;10304844;28;20043;-63
2022/09/17 00:53:00;;;;;;;1.10;1.00;;;;;;;18.98;66.83;95987.16;10299610;28;20058;-63
2022/09/17 00:58:21;;;;;;;1.20;1.10;;;;;;;18.98;66.81;96000.66;10298649;28;20054;-63
2022/09/17 01:03:41;;;;;;;1.10;1.00;;;;;;;18.97;66.75;96010.66;10301943;28;20059;-54
2022/09/17 01:09:17;;;;;;;1.08;0.98;;;;;;;18.98;66.69;96011.47;10294532;28;20070;-54
2022/09/17 01:15:03;;;;;;;1.10;1.00;;;;;;;18.96;66.69;96015.28;10300997;28;20055;-54
2022/09/17 01:20:30;;;;;;;0.98;0.98;;;;;;;18.95;66.61;96013.72;10317747;28;20089;-54
2022/09/17 01:26:35;;;;;;;1.10;1.00;;;;;;;18.96;66.65;96006.41;10297517;28;20134;-54
2022/09/17 01:32:24;;;;;;;1.05;0.95;;;;;;;18.95;66.63;96005.63;10291613;28;20487;-54
2022/09/17 01:38:12;;;;;;;1.10;1.00;;;;;;;18.95;66.57;96015.59;10297108;28;20055;-53
2022/09/17 01:43:55;;;;;;;1.07;0.97;;;;;;;18.95;66.63;96010.22;10303797;28;20050;-54
2022/09/17 01:49:15;;;;;;;1.13;1.02;;;;;;;18.94;66.64;96006.72;10300590;28;20313;-53
2022/09/17 01:54:40;;;;;;;1.27;1.05;;;;;;;18.94;66.65;96005.94;10311045;28;20517;-53
2022/09/17 02:00:02;;;;;;;1.33;0.90;;;;;;;18.93;66.61;96007.88;10313461;28;20042;-54
2022/09/17 02:05:54;;;;;;;0.77;0.77;;;;;;;18.93;66.54;96010.56;10324286;28;20050;-54
2022/09/17 02:11:15;;;;;;;1.10;1.00;;;;;;;18.93;66.54;96015.97;10295078;28;20059;-54
2022/09/17 02:16:37;;;;;;;0.90;0.90;;;;;;;18.94;66.51;96017.53;10296736;28;20170;-54
2022/09/17 02:22:13;;;;;;;0.70;0.70;;;;;;;18.93;66.61;96001.66;10296375;28;20058;-53
2022/09/17 02:27:54;;;;;;;1.17;1.08;;;;;;;18.92;66.53;96008.19;10284026;28;20058;-54
2022/09/17 02:33:16;;;;;;;1.00;0.90;;;;;;;18.93;66.52;96015.16;10289146;28;20042;-53
2022/09/17 02:38:37;;;;;;;0.90;0.90;;;;;;;18.92;66.61;96013.59;10309374;28;20085;-53
2022/09/17 02:44:07;;;;;;;0.77;0.77;;;;;;;18.91;66.43;96014.72;10310679;28;20054;-53
2022/09/17 02:49:33;;;;;;;1.00;1.00;;;;;;;18.90;66.46;96011.22;10294721;28;20061;-54
2022/09/17 02:55:01;;;;;;;1.20;0.93;;;;;;;18.90;66.39;96003.13;10286597;28;20055;-55
2022/09/17 03:00:22;;;;;;;0.90;0.90;;;;;;;18.90;66.42;96010.47;10307782;28;20051;-54
2022/09/17 03:05:42;;;;;;;0.90;0.90;;;;;;;18.89;66.36;96008.88;10306872;28;20055;-54
2022/09/17 03:11:04;;;;;;;1.08;0.90;;;;;;;18.89;66.45;96014.25;10298669;28;20178;-54
2022/09/17 03:16:23;;;;;;;0.80;0.80;;;;;;;18.89;66.33;96008.88;10316654;28;20050;-54
2022/09/17 03:21:43;;;;;;;0.98;0.98;;;;;;;18.89;66.41;96014.25;10327795;28;20425;-53
2022/09/17 03:27:02;;;;;;;0.90;0.90;;;;;;;18.88;66.49;96002.69;10302913;28;20082;-53
2022/09/17 03:32:22;;;;;;;0.82;0.82;;;;;;;18.88;66.50;95996.50;10293226;28;20050;-54
2022/09/17 03:37:41;;;;;;;0.90;0.90;;;;;;;18.88;66.39;95997.28;10310911;28;20039;-54
2022/09/17 03:43:01;;;;;;;0.90;0.80;;;;;;;18.89;66.45;95998.06;10303659;28;20050;-53
2022/09/17 03:48:21;;;;;;;0.90;0.90;;;;;;;18.87;66.41;95984.91;10323996;28;20058;-53
2022/09/17 03:53:40;;;;;;;0.70;0.70;;;;;;;18.87;66.46;95979.50;10311820;28;20069;-53
2022/09/17 03:59:00;;;;;;;1.35;0.70;;;;;;;18.86;66.30;95963.69;10326686;28;20461;-53
2022/09/17 04:04:20;;;;;;;0.88;0.80;;;;;;;18.86;66.38;95955.59;10301517;28;20414;-53
2022/09/17 04:09:39;;;;;;;0.80;0.70;;;;;;;18.87;66.36;95951.75;10318179;28;20247;-54
2022/09/17 04:14:58;;;;;;;0.80;0.80;;;;;;;18.87;66.41;95947.13;10286248;28;20061;-53
2022/09/17 04:20:18;;;;;;;0.90;0.90;;;;;;;18.87;66.23;95949.06;10281190;28;20407;-53
2022/09/17 04:25:37;;;;;;;0.70;0.70;;;;;;;18.86;66.27;95955.59;10283090;28;20059;-54
2022/09/17 04:30:57;;;;;;;0.80;0.80;;;;;;;18.84;66.29;95947.03;10287048;28;20482;-54
2022/09/17 04:36:16;;;;;;;0.88;0.82;;;;;;;18.86;66.23;95931.31;10291592;28;20392;-54
2022/09/17 04:41:36;;;;;;;0.60;0.60;;;;;;;18.85;66.22;95929.72;10264180;28;20066;-53
2022/09/17 04:46:56;;;;;;;0.70;0.70;;;;;;;18.84;66.13;95922.75;10282323;28;20070;-54
2022/09/17 04:52:15;;;;;;;0.88;0.60;;;;;;;18.83;66.18;95923.88;10291819;28;20054;-54
2022/09/17 04:57:35;;;;;;;0.70;0.70;;;;;;;18.84;66.29;95930.84;10272991;28;20109;-53
2022/09/17 05:02:55;;;;;;;0.80;0.70;;;;;;;18.83;66.20;95929.28;10291158;28;20051;-53
2022/09/17 05:08:14;;;;;;;0.80;0.80;;;;;;;18.83;66.13;95927.34;10271174;28;20066;-53
2022/09/17 05:13:33;;;;;;;1.73;0.90;;;;;;;18.83;66.24;95934.66;10264615;28;20066;-54
2022/09/17 05:18:52;;;;;;;0.60;0.60;;;;;;;18.81;66.12;95931.53;10290360;28;20050;-55
2022/09/17 05:24:12;;;;;;;0.70;0.70;;;;;;;18.80;66.05;95935.34;10267919;28;20062;-52
2022/09/17 05:29:32;;;;;;;0.80;0.80;;;;;;;18.81;66.21;95937.69;10272126;28;20051;-53
2022/09/17 05:34:51;;;;;;;0.57;0.57;;;;;;;18.81;66.11;95940.41;10283020;28;20054;-53
2022/09/17 05:40:11;;;;;;;0.70;0.70;;;;;;;18.80;66.11;95946.94;10286863;28;20051;-54
2022/09/17 05:45:32;;;;;;;1.02;0.80;;;;;;;18.80;66.05;95952.34;10271838;28;20051;-54
2022/09/17 05:50:54;;;;;;;0.70;0.70;;;;;;;18.80;66.18;95957.72;10269901;28;20055;-55
2022/09/17 05:56:14;;;;;;;0.68;0.68;;;;;;;18.80;66.13;95956.91;10278625;28;20080;-54
2022/09/17 06:01:33;;;;;;;0.70;0.70;;;;;;;18.80;66.14;95973.09;10247501;28;20054;-54
2022/09/17 06:06:53;;;;;;;0.93;0.82;;;;;;;18.80;66.06;96000.09;10275452;28;20043;-54
2022/09/17 06:12:12;;;;;;;0.73;0.70;;;;;;;18.78;66.07;96001.19;10277841;28;20069;-54
2022/09/17 06:17:33;;;;;;;0.85;0.70;;;;;;;18.78;66.07;96003.91;10305475;28;20046;-54
2022/09/17 06:22:56;;;;;;;0.70;0.70;;;;;;;18.78;66.03;96014.69;10307007;28;20491;-54
2022/09/17 06:28:16;;;;;;;0.80;0.80;;;;;;;18.78;66.09;96025.50;10297218;28;20062;-53
2022/09/17 06:33:35;;;;;;;0.70;0.70;;;;;;;18.78;66.07;96033.59;10312269;28;20048;-53
2022/09/17 06:38:54;;;;;;;1.08;0.77;;;;;;;18.78;66.07;96035.50;10311366;28;20054;-55
2022/09/17 06:44:14;;;;;;;0.70;0.70;;;;;;;18.77;66.03;96028.53;10296306;28;20054;-54
2022/09/17 06:49:33;;;;;;;0.77;0.73;;;;;;;18.76;66.13;96038.53;10297312;28;20077;-53
2022/09/17 06:54:52;;;;;;;1.75;0.70;;;;;;;18.76;66.00;96043.94;10330654;28;20050;-54
2022/09/17 07:00:13;;;;;;;0.65;0.65;;;;;;;18.76;65.99;96049.31;10295203;28;20051;-54
2022/09/17 07:05:33;;;;;;;0.80;0.80;;;;;;;18.76;65.95;96062.81;10305805;28;20113;-54
2022/09/17 07:10:56;;;;;;;0.80;0.80;;;;;;;18.75;66.04;96050.44;10297256;28;20088;-53
2022/09/17 07:16:15;;;;;;;0.70;0.70;;;;;;;18.76;66.06;96052.03;10300410;28;20057;-53
2022/09/17 07:21:35;;;;;;;0.60;0.60;;;;;;;18.76;65.92;96049.31;10294387;28;20572;-54
2022/09/17 07:26:54;;;;;;;0.80;0.80;;;;;;;18.76;65.91;96060.13;10293985;28;20466;-54
2022/09/17 07:32:14;;;;;;;0.50;0.50;;;;;;;18.75;65.86;96057.75;10298697;28;20081;-54
2022/09/17 07:37:33;;;;;;;0.60;0.60;;;;;;;18.75;65.87;96053.13;10293614;28;20102;-54
2022/09/17 07:42:57;;;;;;;0.60;0.60;;;;;;;18.75;65.94;96053.13;10291346;28;20043;-54
2022/09/17 07:48:16;;;;;;;0.80;0.80;;;;;;;18.74;65.99;96050.78;10298968;28;20058;-54
2022/09/17 07:53:35;;;;;;;0.70;0.70;;;;;;;18.73;65.99;96038.41;10315396;28;20409;-54
2022/09/17 07:58:55;;;;;;;0.73;0.73;;;;;;;18.74;65.93;96029.22;10298279;28;20114;-54
2022/09/17 08:04:14;;;;;;;0.65;0.50;;;;;;;18.73;65.74;96017.59;10314621;28;20086;-54
2022/09/17 08:09:33;;;;;;;1.23;1.00;;;;;;;18.73;65.83;96006.03;10290107;28;20055;-54
2022/09/17 08:14:53;;;;;;;0.98;0.90;;;;;;;18.73;65.82;96006.81;10303099;28;20065;-54
2022/09/17 08:20:13;;;;;;;0.73;0.73;;;;;;;18.72;65.77;96007.97;10304755;28;20059;-54
2022/09/17 08:25:33;;;;;;;1.70;1.15;;;;;;;18.72;65.94;96005.25;10292022;28;20059;-54
2022/09/17 08:30:52;;;;;;;0.60;0.60;;;;;;;18.73;66.04;96001.41;10313700;28;20034;-54
2022/09/17 08:36:13;;;;;;;0.80;0.80;;;;;;;18.74;66.10;96013.03;10322365;28;20417;-54
2022/09/17 08:41:41;;;;;;;0.93;0.75;;;;;;;18.74;66.16;96026.50;10290067;28;20050;-54
2022/09/17 08:47:12;;;;;;;0.80;0.80;;;;;;;18.73;66.25;96028.41;10290515;28;20546;-54
2022/09/17 08:52:50;;;;;;;0.68;0.68;;;;;;;18.72;65.96;96045.72;10299926;28;20058;-53
2022/09/17 08:58:09;;;;;;;0.70;0.70;;;;;;;18.74;66.17;96051.56;10313052;28;20043;-54
2022/09/17 09:03:54;;;;;;;0.88;0.70;;;;;;;18.72;65.96;96064.63;10301921;28;20074;-53
2022/09/17 09:09:19;;;;;;;0.85;0.60;;;;;;;18.72;66.02;96072.72;10304696;28;20093;-53
2022/09/17 09:14:48;;;;;;;0.70;0.70;;;;;;;18.72;65.99;96080.03;10300445;28;20047;-54
2022/09/17 09:20:47;;;;;;;0.83;0.83;;;;;;;18.72;65.87;96107.78;10297694;28;20055;-54
2022/09/17 09:26:23;;;;;;;0.63;0.63;;;;;;;18.73;65.81;96105.88;10287766;28;20059;-53
2022/09/17 09:32:19;;;;;;;3.15;1.05;;;;;;;18.72;65.90;96107.00;10298586;28;20545;-54
2022/09/17 09:37:42;;;;;;;1.80;1.08;;;;;;;18.72;66.06;96090.81;10315082;28;20054;-55
2022/09/17 09:43:11;;;;;;;2.00;0.90;;;;;;;18.73;66.36;96090.47;10303762;28;20058;-54
2022/09/17 09:49:18;;;;;;;0.80;0.80;;;;;;;18.73;66.33;96076.97;10309702;28;20051;-55
2022/09/17 09:55:02;;;;;;;2.22;0.90;;;;;;;18.73;66.40;96070.78;10262810;28;20047;-54
2022/09/17 10:00:31;;;;;;;0.80;0.80;;;;;;;18.74;66.42;96075.84;10305416;28;20097;-55
2022/09/17 10:06:05;;;;;;;1.00;1.00;;;;;;;18.75;66.38;96084.72;10314371;28;20177;-54
2022/09/17 10:11:27;;;;;;;0.70;0.70;;;;;;;18.77;66.29;96101.38;10316158;28;20043;-55
2022/09/17 10:16:46;;;;;;;0.93;0.80;;;;;;;18.77;66.42;96104.84;10297448;28;20063;-54
2022/09/17 10:22:23;;;;;;;0.80;0.80;;;;;;;18.80;66.38;96108.84;10326435;28;20047;-54
2022/09/17 10:27:44;;;;;;;0.80;0.80;;;;;;;18.82;66.59;96100.38;10296754;28;20054;-54
2022/09/17 10:33:22;;;;;;;2.05;0.90;;;;;;;18.84;66.40;96093.56;10302773;28;20042;-54
2022/09/17 10:38:44;;;;;;;1.02;0.85;;;;;;;18.87;66.36;96092.09;10297695;28;20059;-55
2022/09/17 10:44:16;;;;;;;0.90;0.85;;;;;;;18.90;66.31;96081.41;10296038;28;20050;-54
2022/09/17 10:49:40;;;;;;;2.10;1.02;;;;;;;18.92;66.15;96067.56;10295365;28;20430;-54
2022/09/17 10:55:17;;;;;;;0.88;0.70;;;;;;;18.94;66.16;96074.22;10313884;28;20047;-55
2022/09/17 11:00:48;;;;;;;1.00;0.90;;;;;;;18.98;66.23;96077.03;10304093;28;20059;-54
2022/09/17 11:06:33;;;;;;;0.90;0.90;;;;;;;19.03;66.21;96078.69;10307808;28;20506;-54
2022/09/17 11:12:06;;;;;;;0.75;0.68;;;;;;;19.05;66.13;96085.34;10296107;28;20051;-56
2022/09/17 11:17:41;;;;;;;1.10;0.80;;;;;;;19.07;66.13;96085.81;10294218;28;20050;-55
2022/09/17 11:23:10;;;;;;;1.00;0.70;;;;;;;19.10;66.08;96071.63;10294319;28;20062;-55
2022/09/17 11:28:54;;;;;;;2.83;0.70;;;;;;;19.16;65.98;96064.84;10294017;28;20058;-54
2022/09/17 11:34:34;;;;;;;0.93;0.70;;;;;;;19.20;65.78;96056.09;10287864;28;20043;-54
2022/09/17 11:39:59;;;;;;;1.13;0.70;;;;;;;19.24;65.74;96059.69;10292907;28;20141;-55
2022/09/17 11:45:23;;;;;;;1.35;0.70;;;;;;;19.27;65.59;96057.09;10281103;28;20137;-54
2022/09/17 11:51:12;;;;;;;1.75;0.70;;;;;;;19.31;65.36;96054.50;10296008;28;20056;-54
2022/09/17 11:56:39;;;;;;;4.28;0.80;;;;;;;19.35;65.22;96039.97;10292417;28;20506;-54
2022/09/17 12:02:11;;;;;;;0.77;0.70;;;;;;;19.40;65.21;96033.53;10284529;28;20054;-54
2022/09/17 12:07:47;;;;;;;0.85;0.60;;;;;;;19.42;64.97;96025.88;10292926;28;20062;-54
2022/09/17 12:13:23;;;;;;;1.00;0.75;;;;;;;19.48;64.86;96029.13;10294474;28;20058;-55
2022/09/17 12:18:54;;;;;;;0.77;0.70;;;;;;;19.51;65.00;96028.44;10293478;28;20069;-55
2022/09/17 12:24:29;;;;;;;2.08;0.70;;;;;;;19.56;64.70;96025.50;10290610;28;20050;-54
2022/09/17 12:30:03;;;;;;;1.20;0.73;;;;;;;19.60;64.56;96015.59;10318949;28;20398;-53
2022/09/17 12:35:28;;;;;;;1.83;0.60;;;;;;;19.64;64.52;96010.28;10297890;28;20502;-55
2022/09/17 12:40:57;;;;;;;0.82;0.82;;;;;;;19.66;61.02;96003.41;10326549;28;20051;-55
2022/09/17 12:46:41;;;;;;;2.08;0.90;;;;;;;19.61;58.42;95983.97;10297700;28;20065;-54
2022/09/17 12:52:42;;;;;;;0.80;0.60;;;;;;;19.59;55.95;95991.63;10290607;28;20078;-54
2022/09/17 12:58:40;;;;;;;1.08;0.75;;;;;;;19.58;55.02;95984.63;10296309;28;20055;-55
2022/09/17 13:04:15;;;;;;;1.00;0.90;;;;;;;19.63;56.74;95998.69;10294703;28;20054;-55
2022/09/17 13:10:02;;;;;;;1.08;0.70;;;;;;;19.69;56.72;96002.72;10296830;28;20116;-54
2022/09/17 13:15:46;;;;;;;0.80;0.80;;;;;;;19.74;56.61;96001.72;10257978;28;1251211;-54
2022/09/17 13:21:11;;;;;;;1.70;0.80;;;;;;;19.79;56.91;95984.47;10301713;28;20046;-54
2022/09/17 13:26:35;;;;;;;0.98;0.70;;;;;;;19.84;57.31;95981.53;10324962;28;20055;-54
2022/09/17 13:31:55;;;;;;;0.75;0.70;;;;;;;19.88;57.39;95961.56;10308982;28;20042;-54
2022/09/17 13:37:18;;;;;;;1.25;0.80;;;;;;;19.93;57.76;95961.31;10308246;28;20051;-54
2022/09/17 13:42:43;;;;;;;1.33;0.70;;;;;;;19.99;58.17;95966.44;10302675;28;20051;-54
2022/09/17 13:48:10;;;;;;;0.70;0.70;;;;;;;20.04;57.72;95958.09;10298525;28;20105;-52
2022/09/17 13:53:30;;;;;;;1.88;0.73;;;;;;;20.07;57.87;95951.97;10327948;28;20046;-53
2022/09/17 13:58:50;;;;;;;4.07;0.70;;;;;;;20.10;58.20;95952.06;10313785;28;20525;-54
2022/09/17 14:04:49;;;;;;;2.88;0.80;;;;;;;20.11;54.64;95950.16;10327424;28;20046;-54
2022/09/17 14:10:14;;;;;;;2.33;0.73;;;;;;;20.14;56.57;95955.66;10336537;28;20061;-53
2022/09/17 14:15:40;;;;;;;1.45;0.70;;;;;;;20.15;55.82;95962.66;10310668;28;20054;-54
2022/09/17 14:21:15;;;;;;;1.40;0.80;;;;;;;20.19;55.82;95986.28;10335152;28;20146;-54
2022/09/17 14:26:56;;;;;;;2.08;0.88;;;;;;;20.21;55.93;95984.00;10305377;28;20082;-54
2022/09/17 14:32:19;;;;;;;2.33;0.80;;;;;;;20.23;56.11;95987.13;10295484;28;20051;-54
2022/09/17 14:37:41;;;;;;;1.40;0.80;;;;;;;20.25;56.38;95996.50;10307356;28;20104;-54
2022/09/17 14:43:01;;;;;;;2.30;0.60;;;;;;;20.27;56.59;95985.34;10302909;28;20071;-54
2022/09/17 14:48:32;;;;;;;9.20;1.10;;;;;;;20.29;56.79;95997.38;10294805;28;20057;-53
2022/09/17 14:54:09;;;;;;;2.15;0.70;;;;;;;20.29;53.29;95996.59;10285619;28;20074;-54
2022/09/17 14:59:48;;;;;;;2.35;0.85;;;;;;;20.21;51.63;96000.22;10295125;28;20110;-53
2022/09/17 15:05:33;;;;;;;4.18;0.80;;;;;;;20.16;50.65;95998.56;10289533;28;20050;-54
2022/09/17 15:10:58;;;;;;;3.42;0.73;;;;;;;20.14;50.08;96006.25;10304934;28;20406;-53
2022/09/17 15:16:26;;;;;;;3.10;0.90;;;;;;;20.10;49.64;96000.75;10282441;28;20062;-55
2022/09/17 15:21:48;;;;;;;2.40;0.68;;;;;;;20.06;49.22;96005.28;10314861;28;20046;-54
2022/09/17 15:27:11;;;;;;;1.52;0.75;;;;;;;20.05;49.27;96002.91;10311551;28;20059;-53
2022/09/17 15:32:32;;;;;;;1.67;0.70;;;;;;;20.04;48.87;95995.94;10303942;28;20487;-54
2022/09/17 15:37:56;;;;;;;2.95;0.75;;;;;;;20.02;47.96;96012.50;10317950;28;20046;-53
2022/09/17 15:43:22;;;;;;;2.00;0.70;;;;;;;19.99;49.10;96005.06;10295886;28;20494;-52
2022/09/17 15:48:41;;;;;;;1.70;0.93;;;;;;;20.08;50.64;96004.94;10292646;28;20061;-54
2022/09/17 15:54:03;;;;;;;1.67;0.80;;;;;;;20.13;51.01;96007.38;10293375;28;20050;-54
2022/09/17 15:59:27;;;;;;;1.95;0.90;;;;;;;20.17;51.60;96016.38;10303508;28;20495;-54
2022/09/17 16:04:51;;;;;;;1.00;0.60;;;;;;;20.19;51.91;96029.53;10293895;28;20078;-54
2022/09/17 16:10:12;;;;;;;1.50;0.90;;;;;;;20.19;52.50;96043.88;10294096;28;20057;-54
2022/09/17 16:15:32;;;;;;;2.13;0.80;;;;;;;20.20;52.82;96042.72;10305634;28;20043;-54
2022/09/17 16:20:52;;;;;;;3.47;0.75;;;;;;;20.22;53.20;96024.22;10292442;28;20155;-55
2022/09/17 16:26:17;;;;;;;2.00;0.80;;;;;;;20.23;53.48;96022.31;10292615;28;20059;-54
2022/09/17 16:31:37;;;;;;;2.95;0.82;;;;;;;20.23;53.76;96023.09;10299859;28;20054;-53
2022/09/17 16:36:56;;;;;;;19.23;10.23;;;;;;;20.24;54.32;96026.59;10306139;28;20054;-54
2022/09/17 16:42:15;;;;;;;26.77;15.77;;;;;;;20.25;55.30;96036.28;10307997;28;20055;-53
2022/09/17 16:47:36;;;;;;;28.20;13.63;;;;;;;20.26;56.54;96040.56;10294843;28;20090;-54
2022/09/17 16:52:55;;;;;;;15.77;9.07;;;;;;;20.27;57.62;96037.50;10291311;28;20507;-53
2022/09/17 16:58:14;;;;;;;18.67;9.57;;;;;;;20.29;58.33;96037.16;10297879;28;20054;-54
2022/09/17 17:03:34;;;;;;;19.38;10.35;;;;;;;20.29;58.59;96042.56;10296747;28;20487;-53
2022/09/17 17:08:53;;;;;;;5.03;2.90;;;;;;;20.10;50.46;96041.31;10300994;28;20057;-53
2022/09/17 17:14:13;;;;;;;3.80;1.73;;;;;;;19.83;47.72;96044.81;10306683;28;20063;-54
2022/09/17 17:19:34;;;;;;;5.47;2.65;;;;;;;19.85;50.64;96048.72;10302680;28;20058;-53
2022/09/17 17:24:54;;;;;;;4.80;2.50;;;;;;;19.97;52.34;96057.94;10330617;28;20054;-54
2022/09/17 17:30:17;;;;;;;5.35;2.50;;;;;;;20.05;52.58;96051.56;10296280;28;20451;-54
2022/09/17 17:35:38;;;;;;;5.80;2.20;;;;;;;20.09;52.68;96060.56;10318265;28;20051;-53
2022/09/17 17:41:16;;;;;;;6.38;1.83;;;;;;;20.10;52.98;96065.63;10323940;28;20065;-54
2022/09/17 17:46:36;;;;;;;5.10;2.10;;;;;;;20.11;53.47;96061.81;10314051;28;20479;-54
2022/09/17 17:51:55;;;;;;;5.82;2.17;;;;;;;20.12;53.95;96071.50;10313500;28;20050;-54
2022/09/17 17:57:14;;;;;;;3.83;1.85;;;;;;;20.12;54.26;96076.13;10290794;28;20112;-53
2022/09/17 18:02:36;;;;;;;4.55;1.73;;;;;;;20.12;54.68;96076.13;10305348;28;20121;-53
2022/09/17 18:07:55;;;;;;;4.10;1.70;;;;;;;20.14;55.04;96088.16;10311634;28;20049;-54
2022/09/17 18:13:14;;;;;;;7.25;1.77;;;;;;;20.13;55.43;96099.31;10299183;28;20154;-55
2022/09/17 18:18:36;;;;;;;4.20;1.50;;;;;;;20.13;55.62;96102.00;10286606;28;20051;-55
2022/09/17 18:23:55;;;;;;;2.88;1.67;;;;;;;20.12;55.94;96109.34;10298350;28;20101;-55
2022/09/17 18:29:15;;;;;;;5.15;1.95;;;;;;;20.13;56.22;96112.81;10303348;28;20058;-62
2022/09/17 18:34:35;;;;;;;5.95;1.30;;;;;;;20.12;56.49;96112.06;10320874;28;20066;-62
2022/09/17 18:39:55;;;;;;;3.10;1.60;;;;;;;20.12;56.73;96116.69;10293930;28;20058;-61
2022/09/17 18:45:16;;;;;;;2.55;1.38;;;;;;;20.13;56.86;96118.22;10313743;28;20101;-62
2022/09/17 18:50:35;;;;;;;3.08;1.35;;;;;;;20.14;57.00;96119.81;10293550;28;20051;-59
2022/09/17 18:55:57;;;;;;;2.67;1.55;;;;;;;20.12;57.12;96116.69;10311109;28;20402;-61
2022/09/17 19:01:17;;;;;;;4.85;1.30;;;;;;;20.12;57.26;96119.38;10313462;28;20055;-69
2022/09/17 19:06:37;;;;;;;3.83;1.40;;;;;;;20.12;57.35;96122.09;10319543;28;20050;-66
2022/09/17 19:11:56;;;;;;;1.85;1.42;;;;;;;20.12;57.48;96124.78;10287190;28;20133;-68
2022/09/17 19:17:16;;;;;;;2.92;1.13;;;;;;;20.12;57.72;96122.09;10294640;28;20059;-62
2022/09/17 19:22:36;;;;;;;2.03;0.93;;;;;;;20.12;57.66;96127.50;10293763;28;20550;-63
2022/09/17 19:27:55;;;;;;;1.42;1.20;;;;;;;20.11;57.91;96115.09;10294507;28;20392;-60
2022/09/17 19:33:15;;;;;;;3.75;1.20;;;;;;;20.11;57.93;96131.31;10289297;28;20058;-62
2022/09/17 19:38:35;;;;;;;1.70;1.05;;;;;;;20.12;57.75;96113.97;10299934;28;20515;-59
2022/09/17 19:43:55;;;;;;;1.60;1.02;;;;;;;20.11;58.08;96117.78;10307045;28;20046;-67
2022/09/17 19:49:15;;;;;;;1.25;0.90;;;;;;;20.12;58.23;96119.38;10304462;28;20082;-61
2022/09/17 19:54:34;;;;;;;2.03;1.05;;;;;;;20.12;58.19;96116.69;10318584;28;20053;-64
2022/09/17 19:59:53;;;;;;;2.13;1.10;;;;;;;20.12;58.45;96116.69;10307655;28;20406;-67
2022/09/17 20:05:13;;;;;;;1.77;0.90;;;;;;;20.11;58.38;96115.91;10298679;28;20070;-60
2022/09/17 20:10:36;;;;;;;1.33;1.05;;;;;;;20.11;58.54;96117.78;10311332;28;20046;-67
2022/09/17 20:16:10;;;;;;;1.42;0.75;;;;;;;20.11;58.50;96120.50;10288996;28;20058;-61
2022/09/17 20:21:29;;;;;;;3.03;1.17;;;;;;;20.11;58.60;96120.50;10295705;28;20057;-60
2022/09/17 20:26:49;;;;;;;2.60;1.00;;;;;;;20.09;58.67;96120.06;10283742;28;20050;-70
2022/09/17 20:32:10;;;;;;;1.83;1.00;;;;;;;20.08;58.67;96121.19;10305057;28;20047;-60
2022/09/17 20:37:29;;;;;;;1.70;0.90;;;;;;;20.09;58.90;96122.75;10301467;28;20055;-60
2022/09/17 20:42:48;;;;;;;1.33;0.90;;;;;;;20.08;58.72;96126.63;10307803;28;20047;-54
2022/09/17 20:48:08;;;;;;;2.03;0.80;;;;;;;20.07;58.87;96120.44;10313058;28;20042;-58
2022/09/17 20:53:28;;;;;;;5.03;1.00;;;;;;;20.07;58.70;96117.72;10318394;28;20051;-54
2022/09/17 20:59:06;;;;;;;2.92;1.00;;;;;;;20.07;58.87;96125.03;10296573;28;20482;-54
2022/09/17 21:04:26;;;;;;;1.50;0.75;;;;;;;20.06;58.91;96124.25;10283341;28;20050;-53
2022/09/17 21:09:45;;;;;;;1.33;0.75;;;;;;;20.05;58.88;96122.69;10297682;28;20108;-54
2022/09/17 21:15:05;;;;;;;2.33;0.75;;;;;;;20.05;58.88;96121.88;10309146;28;20065;-54
2022/09/17 21:20:24;;;;;;;1.58;1.00;;;;;;;20.04;58.93;96123.03;10301546;28;20490;-54
2022/09/17 21:25:44;;;;;;;2.97;1.10;;;;;;;20.03;58.79;96118.72;10310783;28;20058;-54
2022/09/17 21:31:07;;;;;;;1.38;0.70;;;;;;;20.03;58.84;96121.44;10314184;28;20053;-54
2022/09/17 21:36:28;;;;;;;2.03;0.85;;;;;;;20.02;58.82;96109.84;10307176;28;20057;-54
2022/09/17 21:41:48;;;;;;;3.35;0.80;;;;;;;20.01;58.89;96118.28;10324883;28;20414;-54
2022/09/17 21:47:07;;;;;;;1.65;0.70;;;;;;;20.01;58.90;96110.97;10317877;28;20125;-55
2022/09/17 21:52:27;;;;;;;2.03;0.90;;;;;;;20.01;58.86;96112.88;10297764;28;20066;-54
2022/09/17 21:57:47;;;;;;;1.20;0.90;;;;;;;20.01;58.70;96116.38;10297046;28;20078;-54
2022/09/17 22:03:06;;;;;;;0.93;0.70;;;;;;;20.00;58.84;96120.22;10297499;28;20042;-54
2022/09/17 22:08:25;;;;;;;0.93;0.70;;;;;;;19.99;58.80;96107.03;10297030;28;20411;-54
2022/09/17 22:14:07;;;;;;;0.93;0.60;;;;;;;19.98;58.78;96108.19;10297103;28;20051;-54
2022/09/17 22:19:27;;;;;;;2.58;0.77;;;;;;;19.99;58.78;96107.03;10299405;28;20062;-55
2022/09/17 22:24:47;;;;;;;1.00;0.70;;;;;;;19.97;58.79;96103.88;10309623;28;20525;-54
2022/09/17 22:30:07;;;;;;;0.70;0.50;;;;;;;19.95;58.79;96107.75;10296855;28;20047;-54
2022/09/17 22:35:26;;;;;;;2.70;0.90;;;;;;;19.95;58.75;96102.34;10298216;28;20067;-54
2022/09/17 22:40:45;;;;;;;0.77;0.60;;;;;;;19.94;58.72;96100.75;10327753;28;20517;-54
2022/09/17 22:46:18;;;;;;;1.70;0.88;;;;;;;19.95;58.79;96102.34;10323747;28;20054;-54
2022/09/17 22:51:38;;;;;;;1.30;0.70;;;;;;;19.93;58.78;96092.97;10296349;28;20050;-54
2022/09/17 22:56:57;;;;;;;0.77;0.70;;;;;;;19.92;58.85;96086.00;10308101;28;20042;-54
2022/09/17 23:02:17;;;;;;;1.23;0.82;;;;;;;19.92;58.76;96086.78;10295388;28;20133;-54
2022/09/17 23:07:36;;;;;;;0.80;0.70;;;;;;;19.91;58.74;96085.19;10298052;28;20059;-54
2022/09/17 23:12:56;;;;;;;5.47;0.82;;;;;;;19.91;58.68;96097.94;10297264;28;20113;-54
2022/09/17 23:18:15;;;;;;;3.10;0.75;;;;;;;19.89;58.74;96087.47;10304873;28;20106;-54
2022/09/17 23:23:35;;;;;;;0.60;0.60;;;;;;;19.89;58.79;96084.75;10297415;28;20057;-53
2022/09/17 23:28:54;;;;;;;1.42;0.85;;;;;;;19.87;58.63;96084.31;10296220;28;20062;-54
2022/09/17 23:34:14;;;;;;;1.55;0.77;;;;;;;19.87;58.71;96073.50;10327376;28;20055;-54
2022/09/17 23:39:33;;;;;;;0.98;0.68;;;;;;;19.87;58.69;96078.13;10316374;28;20062;-54
2022/09/17 23:44:52;;;;;;;0.73;0.63;;;;;;;19.86;58.82;96080.06;10308106;28;20402;-54
2022/09/17 23:50:12;;;;;;;0.60;0.60;;;;;;;19.86;58.77;96063.84;10300846;28;20065;-53
2022/09/17 23:55:31;;;;;;;0.80;0.63;;;;;;;19.85;58.66;96062.25;10311079;28;20105;-54
